sensor_id;sensor_type;location;lat;lon;timestamp;P1;durP1;ratioP1;P2;durP2;ratioP2
77449;SDS011;66536;53.150;18.172;2023-11-21T00:02:21;39.70;;;17.80;;
77449;SDS011;66536;53.150;18.172;2023-11-21T00:04:48;23.70;;;12.20;;
77449;SDS011;66536;53.150;18.172;2023-11-21T00:07:15;27.50;;;12.80;;
77449;SDS011;66536;53.150;18.172;2023-11-21T00:09:42;24.40;;;12.20;;
77449;SDS011;66536;53.150;18.172;2023-11-21T00:12:09;47.10;;;17.60;;
77449;SDS011;66536;53.150;18.172;2023-11-21T00:14:36;43.40;;;18.60;;
77449;SDS011;66536;53.150;18.172;2023-11-21T00:17:04;26.50;;;12.60;;
77449;SDS011;66536;53.150;18.172;2023-11-21T00:19:32;41.60;;;16.90;;
77449;SDS011;66536;53.150;18.172;2023-11-21T00:22:01;41.20;;;16.50;;
77449;SDS011;66536;53.150;18.172;2023-11-21T00:24:28;20.60;;;11.20;;
77449;SDS011;66536;53.150;18.172;2023-11-21T00:26:57;19.70;;;10.60;;
77449;SDS011;66536;53.150;18.172;2023-11-21T00:29:24;20.30;;;10.90;;
77449;SDS011;66536;53.150;18.172;2023-11-21T00:31:51;17.80;;;10.30;;
77449;SDS011;66536;53.150;18.172;2023-11-21T00:34:18;18.80;;;9.90;;
77449;SDS011;66536;53.150;18.172;2023-11-21T00:36:46;15.60;;;9.10;;
77449;SDS011;66536;53.150;18.172;2023-11-21T00:39:12;16.90;;;8.90;;
77449;SDS011;66536;53.150;18.172;2023-11-21T00:41:40;16.50;;;9.00;;
77449;SDS011;66536;53.150;18.172;2023-11-21T00:44:08;22.10;;;11.20;;
77449;SDS011;66536;53.150;18.172;2023-11-21T00:46:34;17.30;;;9.50;;
77449;SDS011;66536;53.150;18.172;2023-11-21T00:49:01;18.40;;;9.50;;
77449;SDS011;66536;53.150;18.172;2023-11-21T00:51:30;14.00;;;8.20;;
77449;SDS011;66536;53.150;18.172;2023-11-21T00:53:57;17.80;;;9.40;;
77449;SDS011;66536;53.150;18.172;2023-11-21T00:56:24;18.20;;;9.70;;
77449;SDS011;66536;53.150;18.172;2023-11-21T00:58:53;17.10;;;9.00;;
77449;SDS011;66536;53.150;18.172;2023-11-21T01:01:20;17.00;;;8.50;;
77449;SDS011;66536;53.150;18.172;2023-11-21T01:03:49;20.60;;;10.90;;
77449;SDS011;66536;53.150;18.172;2023-11-21T01:06:16;21.10;;;12.00;;
77449;SDS011;66536;53.150;18.172;2023-11-21T01:08:43;24.10;;;11.90;;
77449;SDS011;66536;53.150;18.172;2023-11-21T01:11:11;17.10;;;8.40;;
77449;SDS011;66536;53.150;18.172;2023-11-21T01:13:39;16.00;;;9.00;;
77449;SDS011;66536;53.150;18.172;2023-11-21T01:16:07;15.20;;;8.50;;
77449;SDS011;66536;53.150;18.172;2023-11-21T01:18:34;17.90;;;10.30;;
77449;SDS011;66536;53.150;18.172;2023-11-21T01:21:02;14.40;;;8.40;;
77449;SDS011;66536;53.150;18.172;2023-11-21T01:23:29;14.10;;;8.30;;
77449;SDS011;66536;53.150;18.172;2023-11-21T01:25:56;17.10;;;8.90;;
77449;SDS011;66536;53.150;18.172;2023-11-21T01:28:23;17.10;;;8.70;;
77449;SDS011;66536;53.150;18.172;2023-11-21T01:30:50;18.70;;;10.20;;
77449;SDS011;66536;53.150;18.172;2023-11-21T01:33:17;18.80;;;10.00;;
77449;SDS011;66536;53.150;18.172;2023-11-21T01:35:44;15.40;;;8.90;;
77449;SDS011;66536;53.150;18.172;2023-11-21T01:38:12;15.50;;;8.90;;
77449;SDS011;66536;53.150;18.172;2023-11-21T01:40:39;13.70;;;8.20;;
77449;SDS011;66536;53.150;18.172;2023-11-21T01:43:06;13.80;;;8.30;;
77449;SDS011;66536;53.150;18.172;2023-11-21T01:45:34;13.30;;;7.70;;
77449;SDS011;66536;53.150;18.172;2023-11-21T01:48:01;14.00;;;7.20;;
77449;SDS011;66536;53.150;18.172;2023-11-21T01:50:30;18.30;;;9.40;;
77449;SDS011;66536;53.150;18.172;2023-11-21T01:52:57;42.70;;;14.60;;
77449;SDS011;66536;53.150;18.172;2023-11-21T01:55:24;26.20;;;10.40;;
77449;SDS011;66536;53.150;18.172;2023-11-21T01:57:51;30.20;;;12.70;;
77449;SDS011;66536;53.150;18.172;2023-11-21T02:00:18;18.40;;;10.00;;
77449;SDS011;66536;53.150;18.172;2023-11-21T02:02:46;31.00;;;12.20;;
77449;SDS011;66536;53.150;18.172;2023-11-21T02:05:14;20.40;;;10.20;;
77449;SDS011;66536;53.150;18.172;2023-11-21T02:07:45;23.60;;;10.40;;
77449;SDS011;66536;53.150;18.172;2023-11-21T02:10:16;49.90;;;18.00;;
77449;SDS011;66536;53.150;18.172;2023-11-21T02:12:44;40.10;;;15.70;;
77449;SDS011;66536;53.150;18.172;2023-11-21T02:15:13;34.70;;;14.80;;
77449;SDS011;66536;53.150;18.172;2023-11-21T02:17:42;25.70;;;11.80;;
77449;SDS011;66536;53.150;18.172;2023-11-21T02:20:10;24.10;;;11.60;;
77449;SDS011;66536;53.150;18.172;2023-11-21T02:22:43;24.40;;;11.40;;
77449;SDS011;66536;53.150;18.172;2023-11-21T02:25:24;28.00;;;11.60;;
77449;SDS011;66536;53.150;18.172;2023-11-21T02:27:54;31.10;;;13.60;;
77449;SDS011;66536;53.150;18.172;2023-11-21T02:30:22;40.90;;;17.90;;
77449;SDS011;66536;53.150;18.172;2023-11-21T02:32:52;21.40;;;11.60;;
77449;SDS011;66536;53.150;18.172;2023-11-21T02:35:20;26.70;;;11.70;;
77449;SDS011;66536;53.150;18.172;2023-11-21T02:37:47;27.00;;;10.80;;
77449;SDS011;66536;53.150;18.172;2023-11-21T02:40:15;20.80;;;10.20;;
77449;SDS011;66536;53.150;18.172;2023-11-21T02:42:47;22.80;;;10.40;;
77449;SDS011;66536;53.150;18.172;2023-11-21T02:45:14;18.70;;;9.70;;
77449;SDS011;66536;53.150;18.172;2023-11-21T02:47:43;19.80;;;10.20;;
77449;SDS011;66536;53.150;18.172;2023-11-21T02:50:11;24.20;;;11.30;;
77449;SDS011;66536;53.150;18.172;2023-11-21T02:52:40;20.70;;;10.10;;
77449;SDS011;66536;53.150;18.172;2023-11-21T02:55:07;26.20;;;12.00;;
77449;SDS011;66536;53.150;18.172;2023-11-21T02:57:34;20.50;;;9.50;;
77449;SDS011;66536;53.150;18.172;2023-11-21T03:00:01;24.20;;;10.60;;
77449;SDS011;66536;53.150;18.172;2023-11-21T03:02:29;16.90;;;8.70;;
77449;SDS011;66536;53.150;18.172;2023-11-21T03:04:56;18.10;;;9.30;;
77449;SDS011;66536;53.150;18.172;2023-11-21T03:07:23;23.60;;;9.80;;
77449;SDS011;66536;53.150;18.172;2023-11-21T03:09:50;21.50;;;10.00;;
77449;SDS011;66536;53.150;18.172;2023-11-21T03:12:17;22.20;;;10.40;;
77449;SDS011;66536;53.150;18.172;2023-11-21T03:14:43;23.30;;;9.90;;
77449;SDS011;66536;53.150;18.172;2023-11-21T03:17:10;19.00;;;10.50;;
77449;SDS011;66536;53.150;18.172;2023-11-21T03:19:38;20.60;;;9.50;;
77449;SDS011;66536;53.150;18.172;2023-11-21T03:22:04;26.10;;;12.80;;
77449;SDS011;66536;53.150;18.172;2023-11-21T03:24:31;25.60;;;11.80;;
77449;SDS011;66536;53.150;18.172;2023-11-21T03:26:58;27.70;;;12.20;;
77449;SDS011;66536;53.150;18.172;2023-11-21T03:29:25;38.00;;;14.10;;
77449;SDS011;66536;53.150;18.172;2023-11-21T03:31:52;22.90;;;11.40;;
77449;SDS011;66536;53.150;18.172;2023-11-21T03:34:23;28.80;;;12.80;;
77449;SDS011;66536;53.150;18.172;2023-11-21T03:36:53;26.50;;;12.80;;
77449;SDS011;66536;53.150;18.172;2023-11-21T03:39:20;32.20;;;13.20;;
77449;SDS011;66536;53.150;18.172;2023-11-21T03:41:48;30.50;;;13.00;;
77449;SDS011;66536;53.150;18.172;2023-11-21T03:44:16;27.40;;;12.60;;
77449;SDS011;66536;53.150;18.172;2023-11-21T03:46:45;25.20;;;12.00;;
77449;SDS011;66536;53.150;18.172;2023-11-21T03:49:12;25.00;;;12.00;;
77449;SDS011;66536;53.150;18.172;2023-11-21T03:51:40;29.40;;;13.40;;
77449;SDS011;66536;53.150;18.172;2023-11-21T03:54:06;30.90;;;12.30;;
77449;SDS011;66536;53.150;18.172;2023-11-21T03:56:33;29.30;;;13.10;;
77449;SDS011;66536;53.150;18.172;2023-11-21T03:59:00;33.30;;;13.30;;
77449;SDS011;66536;53.150;18.172;2023-11-21T04:01:27;27.80;;;11.60;;
77449;SDS011;66536;53.150;18.172;2023-11-21T04:03:54;26.60;;;11.80;;
77449;SDS011;66536;53.150;18.172;2023-11-21T04:06:21;27.90;;;11.90;;
77449;SDS011;66536;53.150;18.172;2023-11-21T04:08:47;38.70;;;13.00;;
77449;SDS011;66536;53.150;18.172;2023-11-21T04:11:16;27.40;;;12.10;;
77449;SDS011;66536;53.150;18.172;2023-11-21T04:13:43;25.30;;;11.60;;
77449;SDS011;66536;53.150;18.172;2023-11-21T04:16:10;26.60;;;11.60;;
77449;SDS011;66536;53.150;18.172;2023-11-21T04:18:37;20.80;;;10.60;;
77449;SDS011;66536;53.150;18.172;2023-11-21T04:21:05;25.60;;;11.40;;
77449;SDS011;66536;53.150;18.172;2023-11-21T04:23:33;20.00;;;8.80;;
77449;SDS011;66536;53.150;18.172;2023-11-21T04:26:00;23.00;;;10.60;;
77449;SDS011;66536;53.150;18.172;2023-11-21T04:28:28;22.40;;;10.30;;
77449;SDS011;66536;53.150;18.172;2023-11-21T04:30:55;24.70;;;10.80;;
77449;SDS011;66536;53.150;18.172;2023-11-21T04:33:22;24.10;;;9.80;;
77449;SDS011;66536;53.150;18.172;2023-11-21T04:35:48;22.50;;;11.20;;
77449;SDS011;66536;53.150;18.172;2023-11-21T04:38:15;25.60;;;11.20;;
77449;SDS011;66536;53.150;18.172;2023-11-21T04:40:42;27.30;;;11.80;;
77449;SDS011;66536;53.150;18.172;2023-11-21T04:43:09;26.20;;;10.30;;
77449;SDS011;66536;53.150;18.172;2023-11-21T04:45:36;28.30;;;10.80;;
77449;SDS011;66536;53.150;18.172;2023-11-21T04:48:02;29.00;;;11.10;;
77449;SDS011;66536;53.150;18.172;2023-11-21T04:50:30;29.00;;;11.30;;
77449;SDS011;66536;53.150;18.172;2023-11-21T04:52:57;29.40;;;11.50;;
77449;SDS011;66536;53.150;18.172;2023-11-21T04:55:23;30.40;;;11.80;;
77449;SDS011;66536;53.150;18.172;2023-11-21T04:57:50;27.40;;;11.20;;
77449;SDS011;66536;53.150;18.172;2023-11-21T05:00:17;45.40;;;13.60;;
77449;SDS011;66536;53.150;18.172;2023-11-21T05:02:44;44.30;;;13.80;;
77449;SDS011;66536;53.150;18.172;2023-11-21T05:05:11;30.70;;;11.60;;
77449;SDS011;66536;53.150;18.172;2023-11-21T05:07:39;23.40;;;10.60;;
77449;SDS011;66536;53.150;18.172;2023-11-21T05:10:07;33.10;;;12.90;;
77449;SDS011;66536;53.150;18.172;2023-11-21T05:12:38;32.80;;;12.70;;
77449;SDS011;66536;53.150;18.172;2023-11-21T05:15:05;25.10;;;10.80;;
77449;SDS011;66536;53.150;18.172;2023-11-21T05:17:34;46.00;;;14.70;;
77449;SDS011;66536;53.150;18.172;2023-11-21T05:20:01;28.20;;;11.60;;
77449;SDS011;66536;53.150;18.172;2023-11-21T05:22:30;27.60;;;11.10;;
77449;SDS011;66536;53.150;18.172;2023-11-21T05:24:57;25.80;;;10.50;;
77449;SDS011;66536;53.150;18.172;2023-11-21T05:27:25;31.80;;;11.60;;
77449;SDS011;66536;53.150;18.172;2023-11-21T05:29:52;27.50;;;11.90;;
77449;SDS011;66536;53.150;18.172;2023-11-21T05:32:19;31.10;;;12.20;;
77449;SDS011;66536;53.150;18.172;2023-11-21T05:34:45;47.80;;;15.00;;
77449;SDS011;66536;53.150;18.172;2023-11-21T05:37:12;33.70;;;12.30;;
77449;SDS011;66536;53.150;18.172;2023-11-21T05:39:39;36.70;;;13.20;;
77449;SDS011;66536;53.150;18.172;2023-11-21T05:42:06;39.80;;;13.20;;
77449;SDS011;66536;53.150;18.172;2023-11-21T05:44:32;24.60;;;10.40;;
77449;SDS011;66536;53.150;18.172;2023-11-21T05:47:01;32.80;;;12.20;;
77449;SDS011;66536;53.150;18.172;2023-11-21T05:49:28;36.40;;;12.90;;
77449;SDS011;66536;53.150;18.172;2023-11-21T05:51:56;30.80;;;11.00;;
77449;SDS011;66536;53.150;18.172;2023-11-21T05:54:22;27.60;;;10.50;;
77449;SDS011;66536;53.150;18.172;2023-11-21T05:56:50;30.00;;;11.50;;
77449;SDS011;66536;53.150;18.172;2023-11-21T05:59:17;30.60;;;12.00;;
77449;SDS011;66536;53.150;18.172;2023-11-21T06:01:43;26.00;;;10.40;;
77449;SDS011;66536;53.150;18.172;2023-11-21T06:04:12;29.50;;;11.90;;
77449;SDS011;66536;53.150;18.172;2023-11-21T06:06:39;26.10;;;10.30;;
77449;SDS011;66536;53.150;18.172;2023-11-21T06:09:07;22.90;;;9.90;;
77449;SDS011;66536;53.150;18.172;2023-11-21T06:11:35;37.60;;;12.30;;
77449;SDS011;66536;53.150;18.172;2023-11-21T06:14:02;32.10;;;13.00;;
77449;SDS011;66536;53.150;18.172;2023-11-21T06:16:29;24.00;;;10.00;;
77449;SDS011;66536;53.150;18.172;2023-11-21T06:18:56;26.60;;;11.20;;
77449;SDS011;66536;53.150;18.172;2023-11-21T06:21:22;21.00;;;9.00;;
77449;SDS011;66536;53.150;18.172;2023-11-21T06:23:50;29.40;;;11.20;;
77449;SDS011;66536;53.150;18.172;2023-11-21T06:26:18;23.30;;;10.70;;
77449;SDS011;66536;53.150;18.172;2023-11-21T06:28:45;21.50;;;9.30;;
77449;SDS011;66536;53.150;18.172;2023-11-21T06:31:12;38.20;;;13.20;;
77449;SDS011;66536;53.150;18.172;2023-11-21T06:33:38;25.40;;;9.60;;
77449;SDS011;66536;53.150;18.172;2023-11-21T06:36:05;23.30;;;9.90;;
77449;SDS011;66536;53.150;18.172;2023-11-21T06:38:34;22.60;;;10.00;;
77449;SDS011;66536;53.150;18.172;2023-11-21T06:41:01;20.80;;;8.90;;
77449;SDS011;66536;53.150;18.172;2023-11-21T06:43:30;22.30;;;9.60;;
77449;SDS011;66536;53.150;18.172;2023-11-21T06:45:58;15.80;;;7.70;;
77449;SDS011;66536;53.150;18.172;2023-11-21T06:48:25;20.70;;;9.30;;
77449;SDS011;66536;53.150;18.172;2023-11-21T06:50:52;23.00;;;8.70;;
77449;SDS011;66536;53.150;18.172;2023-11-21T06:53:19;26.00;;;9.50;;
77449;SDS011;66536;53.150;18.172;2023-11-21T06:55:46;27.50;;;10.20;;
77449;SDS011;66536;53.150;18.172;2023-11-21T06:58:12;18.90;;;8.30;;
77449;SDS011;66536;53.150;18.172;2023-11-21T07:00:41;25.70;;;11.10;;
77449;SDS011;66536;53.150;18.172;2023-11-21T07:03:14;17.30;;;8.50;;
77449;SDS011;66536;53.150;18.172;2023-11-21T07:05:41;20.00;;;8.50;;
77449;SDS011;66536;53.150;18.172;2023-11-21T07:08:09;16.90;;;8.60;;
77449;SDS011;66536;53.150;18.172;2023-11-21T07:10:35;20.10;;;7.80;;
77449;SDS011;66536;53.150;18.172;2023-11-21T07:13:04;15.00;;;7.20;;
77449;SDS011;66536;53.150;18.172;2023-11-21T07:15:31;15.30;;;7.10;;
77449;SDS011;66536;53.150;18.172;2023-11-21T07:17:59;14.70;;;7.10;;
77449;SDS011;66536;53.150;18.172;2023-11-21T07:20:26;16.50;;;7.30;;
77449;SDS011;66536;53.150;18.172;2023-11-21T07:22:56;18.50;;;7.50;;
77449;SDS011;66536;53.150;18.172;2023-11-21T07:25:25;13.60;;;6.50;;
77449;SDS011;66536;53.150;18.172;2023-11-21T07:27:53;15.10;;;7.00;;
77449;SDS011;66536;53.150;18.172;2023-11-21T07:30:21;18.70;;;6.50;;
77449;SDS011;66536;53.150;18.172;2023-11-21T07:32:49;12.90;;;5.90;;
77449;SDS011;66536;53.150;18.172;2023-11-21T07:35:16;15.00;;;6.10;;
77449;SDS011;66536;53.150;18.172;2023-11-21T07:37:43;12.50;;;6.10;;
77449;SDS011;66536;53.150;18.172;2023-11-21T07:40:11;14.20;;;6.40;;
77449;SDS011;66536;53.150;18.172;2023-11-21T07:42:41;14.00;;;6.80;;
77449;SDS011;66536;53.150;18.172;2023-11-21T07:45:11;14.50;;;7.00;;
77449;SDS011;66536;53.150;18.172;2023-11-21T07:47:41;15.80;;;7.10;;
77449;SDS011;66536;53.150;18.172;2023-11-21T07:50:08;21.90;;;8.90;;
77449;SDS011;66536;53.150;18.172;2023-11-21T07:52:36;14.10;;;6.10;;
77449;SDS011;66536;53.150;18.172;2023-11-21T07:55:08;15.40;;;7.10;;
77449;SDS011;66536;53.150;18.172;2023-11-21T07:57:35;14.50;;;6.10;;
77449;SDS011;66536;53.150;18.172;2023-11-21T08:00:02;17.10;;;7.30;;
77449;SDS011;66536;53.150;18.172;2023-11-21T08:02:39;17.50;;;7.10;;
77449;SDS011;66536;53.150;18.172;2023-11-21T08:05:08;13.30;;;6.60;;
77449;SDS011;66536;53.150;18.172;2023-11-21T08:07:35;19.40;;;7.20;;
77449;SDS011;66536;53.150;18.172;2023-11-21T08:10:02;14.80;;;7.20;;
77449;SDS011;66536;53.150;18.172;2023-11-21T08:12:31;21.30;;;9.10;;
77449;SDS011;66536;53.150;18.172;2023-11-21T08:14:59;15.70;;;8.10;;
77449;SDS011;66536;53.150;18.172;2023-11-21T08:17:29;21.70;;;8.20;;
77449;SDS011;66536;53.150;18.172;2023-11-21T08:19:58;19.40;;;8.00;;
77449;SDS011;66536;53.150;18.172;2023-11-21T08:22:26;16.10;;;6.90;;
77449;SDS011;66536;53.150;18.172;2023-11-21T08:24:54;18.50;;;7.60;;
77449;SDS011;66536;53.150;18.172;2023-11-21T08:27:22;22.70;;;9.10;;
77449;SDS011;66536;53.150;18.172;2023-11-21T08:29:50;24.10;;;10.00;;
77449;SDS011;66536;53.150;18.172;2023-11-21T08:32:18;18.70;;;7.80;;
77449;SDS011;66536;53.150;18.172;2023-11-21T08:34:47;18.30;;;8.00;;
77449;SDS011;66536;53.150;18.172;2023-11-21T08:37:17;12.70;;;7.20;;
77449;SDS011;66536;53.150;18.172;2023-11-21T08:39:44;29.30;;;11.40;;
77449;SDS011;66536;53.150;18.172;2023-11-21T08:42:12;21.50;;;9.00;;
77449;SDS011;66536;53.150;18.172;2023-11-21T08:44:40;21.60;;;8.30;;
77449;SDS011;66536;53.150;18.172;2023-11-21T08:47:07;23.00;;;8.90;;
77449;SDS011;66536;53.150;18.172;2023-11-21T08:49:35;31.90;;;11.60;;
77449;SDS011;66536;53.150;18.172;2023-11-21T08:52:02;33.50;;;11.30;;
77449;SDS011;66536;53.150;18.172;2023-11-21T08:54:31;24.10;;;8.20;;
77449;SDS011;66536;53.150;18.172;2023-11-21T08:56:58;34.20;;;11.60;;
77449;SDS011;66536;53.150;18.172;2023-11-21T08:59:25;25.60;;;10.80;;
77449;SDS011;66536;53.150;18.172;2023-11-21T09:01:52;16.50;;;8.40;;
77449;SDS011;66536;53.150;18.172;2023-11-21T09:04:19;55.10;;;15.80;;
77449;SDS011;66536;53.150;18.172;2023-11-21T09:06:46;42.10;;;15.20;;
77449;SDS011;66536;53.150;18.172;2023-11-21T09:09:13;24.40;;;9.50;;
77449;SDS011;66536;53.150;18.172;2023-11-21T09:11:40;44.10;;;13.60;;
77449;SDS011;66536;53.150;18.172;2023-11-21T09:14:07;110.30;;;21.80;;
77449;SDS011;66536;53.150;18.172;2023-11-21T09:16:37;20.40;;;7.90;;
77449;SDS011;66536;53.150;18.172;2023-11-21T09:19:05;21.60;;;10.00;;
77449;SDS011;66536;53.150;18.172;2023-11-21T09:21:33;35.80;;;14.20;;
77449;SDS011;66536;53.150;18.172;2023-11-21T09:24:00;19.30;;;8.60;;
77449;SDS011;66536;53.150;18.172;2023-11-21T09:26:27;14.20;;;7.60;;
77449;SDS011;66536;53.150;18.172;2023-11-21T09:28:56;32.30;;;14.50;;
77449;SDS011;66536;53.150;18.172;2023-11-21T09:31:23;19.50;;;7.10;;
77449;SDS011;66536;53.150;18.172;2023-11-21T09:33:50;38.40;;;12.60;;
77449;SDS011;66536;53.150;18.172;2023-11-21T09:36:18;23.80;;;9.90;;
77449;SDS011;66536;53.150;18.172;2023-11-21T09:38:45;19.00;;;7.60;;
77449;SDS011;66536;53.150;18.172;2023-11-21T09:41:16;16.50;;;7.80;;
77449;SDS011;66536;53.150;18.172;2023-11-21T09:43:50;19.40;;;8.60;;
77449;SDS011;66536;53.150;18.172;2023-11-21T09:46:25;17.50;;;8.30;;
77449;SDS011;66536;53.150;18.172;2023-11-21T09:48:54;35.40;;;15.20;;
77449;SDS011;66536;53.150;18.172;2023-11-21T09:51:23;13.40;;;7.30;;
77449;SDS011;66536;53.150;18.172;2023-11-21T09:53:56;20.60;;;8.40;;
77449;SDS011;66536;53.150;18.172;2023-11-21T09:56:28;31.20;;;10.30;;
77449;SDS011;66536;53.150;18.172;2023-11-21T09:59:01;23.30;;;9.30;;
77449;SDS011;66536;53.150;18.172;2023-11-21T10:01:33;28.40;;;11.20;;
77449;SDS011;66536;53.150;18.172;2023-11-21T10:04:02;27.00;;;10.40;;
77449;SDS011;66536;53.150;18.172;2023-11-21T10:06:29;19.20;;;8.30;;
77449;SDS011;66536;53.150;18.172;2023-11-21T10:08:57;19.40;;;8.20;;
77449;SDS011;66536;53.150;18.172;2023-11-21T10:11:26;35.90;;;13.20;;
77449;SDS011;66536;53.150;18.172;2023-11-21T10:13:56;43.80;;;16.30;;
77449;SDS011;66536;53.150;18.172;2023-11-21T10:16:26;48.50;;;17.60;;
77449;SDS011;66536;53.150;18.172;2023-11-21T10:18:54;24.00;;;10.90;;
77449;SDS011;66536;53.150;18.172;2023-11-21T10:21:23;25.80;;;11.00;;
77449;SDS011;66536;53.150;18.172;2023-11-21T10:23:51;23.60;;;10.30;;
77449;SDS011;66536;53.150;18.172;2023-11-21T10:26:25;19.40;;;8.30;;
77449;SDS011;66536;53.150;18.172;2023-11-21T10:28:57;17.90;;;8.50;;
77449;SDS011;66536;53.150;18.172;2023-11-21T10:31:26;19.20;;;8.60;;
77449;SDS011;66536;53.150;18.172;2023-11-21T10:33:54;14.60;;;7.30;;
77449;SDS011;66536;53.150;18.172;2023-11-21T10:36:32;37.00;;;12.80;;
77449;SDS011;66536;53.150;18.172;2023-11-21T10:38:59;26.80;;;10.00;;
77449;SDS011;66536;53.150;18.172;2023-11-21T10:41:26;20.60;;;8.40;;
77449;SDS011;66536;53.150;18.172;2023-11-21T10:43:58;17.40;;;7.60;;
77449;SDS011;66536;53.150;18.172;2023-11-21T10:46:26;49.40;;;15.60;;
77449;SDS011;66536;53.150;18.172;2023-11-21T10:48:53;39.10;;;13.70;;
77449;SDS011;66536;53.150;18.172;2023-11-21T10:51:22;22.40;;;9.50;;
77449;SDS011;66536;53.150;18.172;2023-11-21T10:53:51;32.80;;;12.80;;
77449;SDS011;66536;53.150;18.172;2023-11-21T10:56:19;27.00;;;10.70;;
77449;SDS011;66536;53.150;18.172;2023-11-21T10:58:52;19.90;;;8.70;;
77449;SDS011;66536;53.150;18.172;2023-11-21T11:01:19;23.70;;;10.00;;
77449;SDS011;66536;53.150;18.172;2023-11-21T11:03:47;23.10;;;8.90;;
77449;SDS011;66536;53.150;18.172;2023-11-21T11:06:16;22.20;;;9.20;;
77449;SDS011;66536;53.150;18.172;2023-11-21T11:08:43;21.20;;;9.00;;
77449;SDS011;66536;53.150;18.172;2023-11-21T11:11:11;15.20;;;7.20;;
77449;SDS011;66536;53.150;18.172;2023-11-21T11:13:43;16.70;;;7.20;;
77449;SDS011;66536;53.150;18.172;2023-11-21T11:16:11;12.80;;;6.60;;
77449;SDS011;66536;53.150;18.172;2023-11-21T11:18:38;11.80;;;5.70;;
77449;SDS011;66536;53.150;18.172;2023-11-21T11:21:07;14.90;;;7.20;;
77449;SDS011;66536;53.150;18.172;2023-11-21T11:26:50;12.40;;;6.70;;
77449;SDS011;66536;53.150;18.172;2023-11-21T11:29:38;12.10;;;6.50;;
77449;SDS011;66536;53.150;18.172;2023-11-21T11:32:15;11.00;;;5.80;;
77449;SDS011;66536;53.150;18.172;2023-11-21T11:34:54;13.30;;;6.80;;
77449;SDS011;66536;53.150;18.172;2023-11-21T11:37:28;14.90;;;6.40;;
77449;SDS011;66536;53.150;18.172;2023-11-21T11:39:57;13.40;;;6.90;;
77449;SDS011;66536;53.150;18.172;2023-11-21T11:42:26;13.60;;;7.70;;
77449;SDS011;66536;53.150;18.172;2023-11-21T11:44:54;12.00;;;6.10;;
77449;SDS011;66536;53.150;18.172;2023-11-21T11:47:31;14.50;;;6.40;;
77449;SDS011;66536;53.150;18.172;2023-11-21T11:50:04;12.30;;;5.50;;
77449;SDS011;66536;53.150;18.172;2023-11-21T11:52:36;15.50;;;6.80;;
77449;SDS011;66536;53.150;18.172;2023-11-21T11:55:15;21.10;;;10.00;;
77449;SDS011;66536;53.150;18.172;2023-11-21T11:57:49;23.70;;;9.80;;
77449;SDS011;66536;53.150;18.172;2023-11-21T12:00:23;14.20;;;5.80;;
77449;SDS011;66536;53.150;18.172;2023-11-21T12:03:06;13.80;;;5.90;;
77449;SDS011;66536;53.150;18.172;2023-11-21T12:05:35;15.80;;;7.00;;
77449;SDS011;66536;53.150;18.172;2023-11-21T12:08:06;11.30;;;6.10;;
77449;SDS011;66536;53.150;18.172;2023-11-21T12:10:34;22.80;;;8.60;;
77449;SDS011;66536;53.150;18.172;2023-11-21T12:13:06;22.20;;;9.90;;
77449;SDS011;66536;53.150;18.172;2023-11-21T12:15:34;16.50;;;7.50;;
77449;SDS011;66536;53.150;18.172;2023-11-21T12:18:05;14.00;;;6.20;;
77449;SDS011;66536;53.150;18.172;2023-11-21T12:20:32;11.00;;;6.00;;
77449;SDS011;66536;53.150;18.172;2023-11-21T12:23:09;12.50;;;6.30;;
77449;SDS011;66536;53.150;18.172;2023-11-21T12:25:37;18.30;;;7.60;;
77449;SDS011;66536;53.150;18.172;2023-11-21T12:28:06;18.10;;;7.80;;
77449;SDS011;66536;53.150;18.172;2023-11-21T12:30:34;30.70;;;11.90;;
77449;SDS011;66536;53.150;18.172;2023-11-21T12:33:02;17.00;;;7.90;;
77449;SDS011;66536;53.150;18.172;2023-11-21T12:35:31;16.70;;;7.20;;
77449;SDS011;66536;53.150;18.172;2023-11-21T12:38:01;22.60;;;8.60;;
77449;SDS011;66536;53.150;18.172;2023-11-21T12:40:30;18.20;;;9.20;;
77449;SDS011;66536;53.150;18.172;2023-11-21T12:42:57;13.10;;;6.70;;
77449;SDS011;66536;53.150;18.172;2023-11-21T12:45:30;12.00;;;6.60;;
77449;SDS011;66536;53.150;18.172;2023-11-21T12:47:59;32.00;;;12.80;;
77449;SDS011;66536;53.150;18.172;2023-11-21T12:50:30;15.60;;;7.00;;
77449;SDS011;66536;53.150;18.172;2023-11-21T12:53:00;14.20;;;6.70;;
77449;SDS011;66536;53.150;18.172;2023-11-21T12:55:30;17.40;;;8.50;;
77449;SDS011;66536;53.150;18.172;2023-11-21T12:58:00;15.00;;;7.20;;
77449;SDS011;66536;53.150;18.172;2023-11-21T13:00:38;16.00;;;7.50;;
77449;SDS011;66536;53.150;18.172;2023-11-21T13:03:14;18.10;;;8.00;;
77449;SDS011;66536;53.150;18.172;2023-11-21T13:05:54;16.00;;;7.40;;
77449;SDS011;66536;53.150;18.172;2023-11-21T13:08:25;15.00;;;6.30;;
77449;SDS011;66536;53.150;18.172;2023-11-21T13:10:57;13.90;;;6.80;;
77449;SDS011;66536;53.150;18.172;2023-11-21T13:13:25;13.00;;;6.20;;
77449;SDS011;66536;53.150;18.172;2023-11-21T13:15:59;10.40;;;4.60;;
77449;SDS011;66536;53.150;18.172;2023-11-21T13:18:28;25.90;;;8.50;;
77449;SDS011;66536;53.150;18.172;2023-11-21T13:20:57;16.60;;;7.10;;
77449;SDS011;66536;53.150;18.172;2023-11-21T13:23:25;16.90;;;7.40;;
77449;SDS011;66536;53.150;18.172;2023-11-21T13:25:55;17.10;;;7.30;;
77449;SDS011;66536;53.150;18.172;2023-11-21T13:28:23;13.50;;;6.10;;
77449;SDS011;66536;53.150;18.172;2023-11-21T13:30:53;16.30;;;7.30;;
77449;SDS011;66536;53.150;18.172;2023-11-21T13:33:21;30.50;;;11.80;;
77449;SDS011;66536;53.150;18.172;2023-11-21T13:35:54;11.00;;;5.20;;
77449;SDS011;66536;53.150;18.172;2023-11-21T13:38:22;15.30;;;6.70;;
77449;SDS011;66536;53.150;18.172;2023-11-21T13:40:51;13.20;;;6.60;;
77449;SDS011;66536;53.150;18.172;2023-11-21T13:43:22;19.30;;;7.50;;
77449;SDS011;66536;53.150;18.172;2023-11-21T13:45:53;17.00;;;8.20;;
77449;SDS011;66536;53.150;18.172;2023-11-21T13:48:29;20.00;;;8.60;;
77449;SDS011;66536;53.150;18.172;2023-11-21T13:51:08;14.70;;;7.30;;
77449;SDS011;66536;53.150;18.172;2023-11-21T13:53:44;30.70;;;12.60;;
77449;SDS011;66536;53.150;18.172;2023-11-21T13:56:16;25.50;;;8.70;;
77449;SDS011;66536;53.150;18.172;2023-11-21T13:58:49;25.00;;;8.10;;
77449;SDS011;66536;53.150;18.172;2023-11-21T14:01:22;16.50;;;7.00;;
77449;SDS011;66536;53.150;18.172;2023-11-21T14:04:11;18.10;;;6.90;;
77449;SDS011;66536;53.150;18.172;2023-11-21T14:06:46;17.60;;;7.00;;
77449;SDS011;66536;53.150;18.172;2023-11-21T14:09:19;15.90;;;6.60;;
77449;SDS011;66536;53.150;18.172;2023-11-21T14:11:54;13.40;;;6.00;;
77449;SDS011;66536;53.150;18.172;2023-11-21T14:14:25;11.60;;;5.50;;
77449;SDS011;66536;53.150;18.172;2023-11-21T14:16:53;14.80;;;6.50;;
77449;SDS011;66536;53.150;18.172;2023-11-21T14:19:22;26.60;;;10.90;;
77449;SDS011;66536;53.150;18.172;2023-11-21T14:21:54;23.80;;;9.80;;
77449;SDS011;66536;53.150;18.172;2023-11-21T14:24:22;20.20;;;6.80;;
77449;SDS011;66536;53.150;18.172;2023-11-21T14:26:50;20.10;;;7.40;;
77449;SDS011;66536;53.150;18.172;2023-11-21T14:29:21;33.40;;;10.60;;